You are not logged in, Click here to log in
ICAO: RCSS Country: 臺北市松山區敦化北路340-9號
Latitude: 25.0676 Longitude: 121.553
Total Arrivals: 290 Total Departures: 257
Latest Arrival: CI302 (RCKH-RCSS)CHU. CHUHAO Latest Departure: BR303 (RCSS-RCKH)CHU. CHUHAO
Scenery:
METAR : RCSS 231700Z 22003KT 180V270 9999 FEW012 SCT050 BKN120 27/25 Q1007 NOSIG RMK A2974

臺北松山機場TSA